Time;durP1;ratioP1;P1;durP2;ratioP2;P2;SDS_P1;SDS_P2;PMS_P1;PMS_P2;Temp;Humidity;BMP_temperature;BMP_pressure;BME280_temperature;BME280_humidity;BME280_pressure;Samples;Min_cycle;Max_cycle;Signal;HPM_P1;HPM_P2
2023/07/04 18:14:14;;;;;;;6.47;2.65;;;20.80;85.50;;;;;;5087552;28;20320;-66
2023/07/04 18:16:40;;;;;;;4.78;2.42;;;20.60;88.70;;;;;;5088191;28;20139;-68
2023/07/04 18:19:06;;;;;;;6.25;2.78;;;20.70;90.40;;;;;;5069831;28;20074;-69
2023/07/04 18:21:32;;;;;;;6.80;3.08;;;20.60;91.00;;;;;;5070499;28;20016;-68
2023/07/04 18:24:01;;;;;;;8.25;2.60;;;20.70;91.20;;;;;;5067049;28;20020;-66
2023/07/04 18:26:30;;;;;;;9.30;2.53;;;20.70;91.30;;;;;;5087440;28;20020;-66
2023/07/04 18:28:55;;;;;;;5.05;2.33;;;20.70;91.10;;;;;;5087977;28;20099;-66
2023/07/04 18:31:27;;;;;;;6.20;2.75;;;20.70;91.00;;;;;;5070354;28;20056;-68
2023/07/04 18:33:58;;;;;;;4.30;3.15;;;20.70;91.10;;;;;;5088110;28;20066;-66
2023/07/04 18:36:24;;;;;;;;;;;20.70;91.30;;;;;;5088807;28;20492;-66
2023/07/04 18:38:50;;;;;;;7.10;3.30;;;20.70;91.60;;;;;;5086379;28;20015;-68
2023/07/04 18:41:19;;;;;;;5.07;2.63;;;20.60;92.10;;;;;;5085946;28;20020;-67
2023/07/04 18:43:45;;;;;;;5.13;2.25;;;20.60;92.40;;;;;;5086359;28;20025;-67
2023/07/04 18:46:17;;;;;;;6.78;2.40;;;20.60;92.30;;;;;;5087877;28;20031;-67
2023/07/04 18:48:44;;;;;;;5.78;2.00;;;20.60;92.20;;;;;;5074617;28;20028;-68
2023/07/04 18:51:12;;;;;;;6.35;2.35;;;20.60;92.10;;;;;;5068146;28;20036;-67
2023/07/04 18:53:38;;;;;;;6.10;2.33;;;20.60;92.30;;;;;;5067145;28;20101;-67
2023/07/04 18:56:04;;;;;;;4.80;2.38;;;20.50;92.40;;;;;;5068863;28;20121;-66
2023/07/04 18:58:30;;;;;;;5.75;2.47;;;20.50;92.60;;;;;;5086886;28;20191;-66
2023/07/04 19:00:56;;;;;;;10.52;2.70;;;20.40;92.70;;;;;;5068477;28;20468;-65
2023/07/04 19:03:23;;;;;;;4.22;2.40;;;20.40;92.90;;;;;;5085271;28;20103;-67
2023/07/04 19:05:48;;;;;;;4.97;2.03;;;20.40;93.00;;;;;;5087881;28;20021;-67
2023/07/04 19:08:14;;;;;;;4.78;2.05;;;20.40;93.00;;;;;;5086533;28;20047;-66
2023/07/04 19:10:44;;;;;;;6.38;2.30;;;20.40;93.00;;;;;;5069208;28;20406;-66
2023/07/04 19:13:10;;;;;;;7.87;2.87;;;20.40;93.50;;;;;;5086509;28;20484;-66
2023/07/04 19:15:37;;;;;;;6.43;2.70;;;20.30;94.80;;;;;;5087189;28;20032;-66
2023/07/04 19:18:02;;;;;;;5.35;2.78;;;20.30;96.00;;;;;;5085039;28;20451;-67
2023/07/04 19:20:28;;;;;;;9.23;3.00;;;20.30;97.20;;;;;;5066711;28;20056;-66
2023/07/04 19:22:54;;;;;;;5.63;3.17;;;20.10;98.10;;;;;;5066421;28;20504;-67
2023/07/04 19:25:19;;;;;;;6.28;3.03;;;20.10;98.90;;;;;;5036661;28;20026;-68
2023/07/04 19:27:45;;;;;;;7.97;3.58;;;19.90;99.60;;;;;;5054783;28;20037;-68
2023/07/04 19:30:11;;;;;;;9.02;3.28;;;19.80;99.90;;;;;;5053029;28;20021;-68
2023/07/04 19:32:36;;;;;;;9.88;3.38;;;19.70;99.90;;;;;;5053758;28;20021;-70
2023/07/04 19:35:02;;;;;;;6.20;3.20;;;19.60;99.90;;;;;;5053885;28;20033;-68
2023/07/04 19:37:28;;;;;;;7.47;3.55;;;19.50;99.90;;;;;;5054205;28;20029;-71
2023/07/04 19:39:54;;;;;;;6.18;3.42;;;19.50;99.90;;;;;;5035304;28;20021;-68
2023/07/04 19:42:19;;;;;;;6.25;3.85;;;19.40;99.90;;;;;;5053045;28;20017;-68
2023/07/04 19:44:45;;;;;;;7.45;4.18;;;19.40;99.90;;;;;;5052749;28;20033;-68
2023/07/04 19:47:11;;;;;;;7.38;3.47;;;19.30;99.90;;;;;;5053758;28;20432;-69
2023/07/04 19:49:37;;;;;;;6.38;3.55;;;19.30;99.90;;;;;;5073400;28;20028;-68
2023/07/04 19:52:03;;;;;;;7.25;3.70;;;19.20;99.90;;;;;;5055723;28;20151;-67
2023/07/04 19:54:29;;;;;;;7.18;3.78;;;19.20;99.90;;;;;;5052677;28;20104;-67
2023/07/04 19:56:56;;;;;;;9.50;3.85;;;19.10;99.90;;;;;;5035097;28;20025;-69
2023/07/04 19:59:23;;;;;;;9.48;5.47;;;19.00;99.90;;;;;;5052988;28;20465;-68
